createdAt,value
2018-06-13T00:00:41.195Z,8.65
2018-06-13T00:03:11.025Z,9.73
2018-06-13T00:05:40.847Z,9.38
2018-06-13T00:08:10.039Z,8.78
2018-06-13T00:10:40.408Z,8.83
2018-06-13T00:13:10.123Z,8.43
2018-06-13T00:15:39.826Z,8.60
2018-06-13T00:18:08.679Z,8.20
2018-06-13T00:20:38.428Z,9.38
2018-06-13T00:23:07.516Z,8.98
2018-06-13T00:25:37.262Z,7.55
2018-06-13T00:28:06.849Z,7.53
2018-06-13T00:30:36.571Z,8.08
2018-06-13T00:33:06.565Z,7.70
2018-06-13T00:35:36.353Z,8.98
2018-06-13T00:38:05.874Z,8.03
2018-06-13T00:40:34.852Z,8.20
2018-06-13T00:43:04.052Z,8.48
2018-06-13T00:45:33.847Z,7.40
2018-06-13T00:48:03.570Z,9.23
2018-06-13T00:50:33.444Z,8.38
2018-06-13T00:53:02.281Z,7.95
2018-06-13T00:55:31.208Z,7.58
2018-06-13T00:58:00.089Z,8.53
2018-06-13T01:00:28.928Z,7.58
2018-06-13T01:02:57.795Z,8.90
2018-06-13T01:05:26.618Z,8.00
2018-06-13T01:07:55.495Z,9.30
2018-06-13T01:10:25.834Z,8.13
2018-06-13T01:12:54.945Z,7.62
2018-06-13T01:15:24.116Z,8.63
2018-06-13T01:17:53.947Z,9.20
2018-06-13T01:20:23.819Z,8.55
2018-06-13T01:22:52.949Z,8.43
2018-06-13T01:25:22.123Z,8.35
2018-06-13T01:27:51.304Z,8.58
2018-06-13T01:30:20.597Z,8.43
2018-06-13T01:32:51.064Z,9.10
2018-06-13T01:35:20.284Z,8.55
2018-06-13T01:37:49.515Z,8.60
2018-06-13T01:40:18.572Z,8.35
2018-06-13T01:42:47.512Z,8.63
2018-06-13T01:45:17.088Z,9.23
2018-06-13T01:47:46.236Z,9.00
2018-06-13T01:50:15.945Z,8.48
2018-06-13T01:52:45.241Z,7.10
2018-06-13T01:55:14.298Z,8.58
2018-06-13T01:57:43.900Z,8.00
2018-06-13T02:00:14.674Z,8.78
2018-06-13T02:02:45.311Z,9.70
2018-06-13T02:05:17.655Z,7.05
2018-06-13T02:07:47.011Z,9.08
2018-06-13T02:10:15.860Z,9.10
2018-06-13T02:12:44.692Z,8.63
2018-06-13T02:15:13.555Z,9.10
2018-06-13T02:17:42.428Z,8.95
2018-06-13T02:20:11.300Z,9.45
2018-06-13T02:22:40.189Z,8.55
2018-06-13T02:25:09.795Z,9.10
2018-06-13T02:27:40.490Z,9.45
2018-06-13T02:30:10.040Z,9.50
2018-06-13T02:32:41.994Z,9.78
2018-06-13T02:35:11.574Z,9.90
2018-06-13T02:37:40.556Z,10.50
2018-06-13T02:40:09.696Z,9.63
2018-06-13T02:42:39.762Z,11.57
2018-06-13T02:45:09.403Z,9.55
2018-06-13T02:47:39.202Z,10.30
2018-06-13T02:50:08.785Z,11.50
2018-06-13T02:52:37.977Z,9.10
2018-06-13T02:55:07.213Z,10.08
2018-06-13T02:57:37.210Z,9.40
2018-06-13T03:00:07.895Z,9.45
2018-06-13T03:02:37.731Z,7.80
2018-06-13T03:05:06.795Z,7.85
2018-06-13T03:07:35.956Z,9.50
2018-06-13T03:10:05.390Z,10.85
2018-06-13T03:12:34.607Z,9.00
2018-06-13T03:15:03.825Z,9.35
2018-06-13T03:17:33.520Z,8.90
2018-06-13T03:20:02.748Z,10.08
2018-06-13T03:22:31.920Z,10.20
2018-06-13T03:25:01.039Z,9.45
2018-06-13T03:27:29.908Z,9.53
2018-06-13T03:29:58.799Z,10.35
2018-06-13T03:32:27.670Z,8.65
2018-06-13T03:34:56.534Z,9.93
2018-06-13T03:37:25.381Z,8.43
2018-06-13T03:39:54.268Z,9.50
2018-06-13T03:42:23.524Z,9.65
2018-06-13T03:44:52.721Z,8.93
2018-06-13T03:47:22.874Z,10.70
2018-06-13T03:49:52.023Z,10.32
2018-06-13T03:52:21.617Z,9.95
2018-06-13T03:54:50.727Z,8.90
2018-06-13T03:57:19.860Z,9.48
2018-06-13T03:59:49.326Z,9.85
2018-06-13T04:02:18.553Z,9.93
2018-06-13T04:04:49.392Z,9.63
2018-06-13T04:07:18.494Z,8.95
2018-06-13T04:09:47.748Z,10.05
2018-06-13T04:12:17.887Z,8.83
2018-06-13T04:14:47.274Z,8.93
2018-06-13T04:17:17.007Z,9.15
2018-06-13T04:19:46.055Z,8.95
2018-06-13T04:22:15.357Z,8.23
2018-06-13T04:24:44.694Z,9.13
2018-06-13T04:27:14.367Z,7.87
2018-06-13T04:29:44.208Z,10.25
2018-06-13T04:32:13.134Z,8.68
2018-06-13T04:34:42.026Z,10.48
2018-06-13T04:37:10.981Z,8.78
2018-06-13T04:39:41.201Z,8.88
2018-06-13T04:42:11.109Z,8.78
2018-06-13T04:44:39.996Z,8.15
2018-06-13T04:47:08.871Z,8.83
2018-06-13T04:49:37.777Z,9.03
2018-06-13T04:52:06.663Z,7.92
2018-06-13T04:54:35.572Z,7.17
2018-06-13T04:57:04.923Z,8.05
2018-06-13T04:59:33.882Z,8.30
2018-06-13T05:02:02.835Z,7.60
2018-06-13T05:04:31.973Z,8.00
2018-06-13T05:07:01.323Z,7.42
2018-06-13T05:09:30.931Z,8.50
2018-06-13T05:12:00.627Z,8.43
2018-06-13T05:14:29.788Z,8.10
2018-06-13T05:17:00.154Z,8.83
2018-06-13T05:19:29.299Z,8.73
2018-06-13T05:21:58.445Z,9.28
2018-06-13T05:24:27.712Z,8.08
2018-06-13T05:26:56.656Z,8.80
2018-06-13T05:29:25.779Z,7.03
2018-06-13T05:31:55.532Z,7.30
2018-06-13T05:34:25.202Z,7.22
2018-06-13T05:36:56.039Z,7.42
2018-06-13T05:39:25.184Z,7.47
2018-06-13T05:41:55.296Z,7.45
2018-06-13T05:44:24.787Z,7.50
2018-06-13T05:46:53.878Z,7.47
2018-06-13T05:49:23.704Z,8.28
2018-06-13T05:51:53.264Z,6.95
2018-06-13T05:54:23.209Z,8.60
2018-06-13T05:56:52.088Z,7.62
2018-06-13T05:59:21.279Z,8.53
2018-06-13T06:01:50.122Z,9.03
2018-06-13T06:04:18.979Z,7.15
2018-06-13T06:06:47.891Z,8.05
2018-06-13T06:09:16.812Z,7.25
2018-06-13T06:11:45.688Z,8.30
2018-06-13T06:14:15.181Z,9.18
2018-06-13T06:16:44.429Z,10.28
2018-06-13T06:19:14.513Z,8.90
2018-06-13T06:21:43.538Z,8.93
2018-06-13T06:24:12.742Z,8.75
2018-06-13T06:26:41.661Z,9.85
2018-06-13T06:29:10.632Z,8.10
2018-06-13T06:31:39.910Z,9.88
2018-06-13T06:34:09.184Z,8.58
2018-06-13T06:36:39.127Z,8.55
2018-06-13T06:39:08.924Z,8.68
2018-06-13T06:41:38.080Z,9.00
2018-06-13T06:44:08.096Z,10.20
2018-06-13T06:46:38.111Z,8.63
2018-06-13T06:49:07.952Z,8.00
2018-06-13T06:51:37.109Z,8.90
2018-06-13T06:54:06.831Z,10.58
2018-06-13T06:56:35.918Z,9.15
2018-06-13T06:59:04.849Z,8.28
2018-06-13T07:01:34.758Z,8.83
2018-06-13T07:04:05.389Z,9.03
2018-06-13T07:06:34.651Z,12.35
2018-06-13T07:09:06.347Z,9.75
2018-06-13T07:11:35.900Z,8.10
2018-06-13T07:14:05.168Z,9.10
2018-06-13T07:16:34.278Z,8.73
2018-06-13T07:19:04.187Z,9.60
2018-06-13T07:21:33.084Z,9.18
2018-06-13T07:24:02.029Z,8.95
2018-06-13T07:26:30.903Z,7.75
2018-06-13T07:28:59.748Z,9.05
2018-06-13T07:31:28.679Z,9.53
2018-06-13T07:33:57.951Z,9.83
2018-06-13T07:36:26.876Z,9.53
2018-06-13T07:38:56.650Z,9.65
2018-06-13T07:41:27.597Z,8.78
2018-06-13T07:43:56.771Z,9.55
2018-06-13T07:46:25.847Z,8.68
2018-06-13T07:48:54.796Z,9.13
2018-06-13T07:51:23.947Z,8.55
2018-06-13T07:53:52.958Z,9.15
2018-06-13T07:56:21.830Z,9.53
2018-06-13T07:58:50.758Z,9.58
2018-06-13T08:01:19.616Z,10.03
2018-06-13T08:03:48.540Z,9.48
2018-06-13T08:06:17.439Z,8.75
2018-06-13T08:08:46.331Z,9.30
2018-06-13T08:11:15.240Z,9.30
2018-06-13T08:13:45.625Z,9.63
2018-06-13T08:16:14.598Z,9.13
2018-06-13T08:18:43.607Z,9.05
2018-06-13T08:21:12.509Z,11.40
2018-06-13T08:23:41.397Z,8.98
2018-06-13T08:26:11.436Z,9.15
2018-06-13T08:28:40.344Z,8.93
2018-06-13T08:31:09.185Z,8.55
2018-06-13T08:33:38.039Z,7.55
2018-06-13T08:36:06.952Z,8.83
2018-06-13T08:38:36.105Z,8.10
2018-06-13T08:41:05.052Z,8.78
2018-06-13T08:43:33.900Z,8.58
2018-06-13T08:46:02.808Z,8.28
2018-06-13T08:48:32.535Z,9.25
2018-06-13T08:51:02.181Z,10.00
2018-06-13T08:53:31.277Z,7.95
2018-06-13T08:56:00.778Z,9.68
2018-06-13T08:58:30.020Z,11.00
2018-06-13T09:00:59.092Z,8.80
2018-06-13T09:03:27.957Z,11.20
2018-06-13T09:05:57.094Z,9.55
2018-06-13T09:08:25.947Z,8.95
2018-06-13T09:10:55.640Z,10.55
2018-06-13T09:13:24.781Z,8.85
2018-06-13T09:15:54.437Z,9.68
2018-06-13T09:18:23.290Z,10.15
2018-06-13T09:20:52.191Z,9.63
2018-06-13T09:23:20.694Z,8.75
2018-06-13T09:25:49.667Z,9.03
2018-06-13T09:28:18.516Z,8.80
2018-06-13T09:30:47.774Z,6.70
2018-06-13T09:33:16.702Z,7.53
2018-06-13T09:35:45.576Z,7.25
2018-06-13T09:38:14.479Z,8.85
2018-06-13T09:40:43.402Z,8.80
2018-06-13T09:43:12.231Z,7.67
2018-06-13T09:45:41.159Z,8.35
2018-06-13T09:48:09.986Z,7.65
2018-06-13T09:50:38.866Z,9.25
2018-06-13T09:53:07.738Z,6.58
2018-06-13T09:55:36.626Z,7.50
2018-06-13T09:58:05.889Z,8.90
2018-06-13T10:00:40.003Z,8.03
2018-06-13T10:03:10.736Z,6.65
2018-06-13T10:05:40.386Z,7.45
2018-06-13T10:08:09.652Z,7.00
2018-06-13T10:10:38.504Z,6.78
2018-06-13T10:13:07.830Z,5.65
2018-06-13T10:15:37.595Z,7.17
2018-06-13T10:18:06.631Z,6.58
2018-06-13T10:20:35.730Z,7.15
2018-06-13T10:23:04.566Z,5.70
2018-06-13T10:25:33.771Z,5.75
2018-06-13T10:28:02.687Z,5.35
2018-06-13T10:30:31.942Z,4.62
2018-06-13T10:33:01.449Z,6.67
2018-06-13T10:35:30.577Z,5.05
2018-06-13T10:38:00.317Z,6.20
2018-06-13T10:40:29.367Z,5.55
2018-06-13T10:42:58.549Z,4.90
2018-06-13T10:45:27.399Z,6.30
2018-06-13T10:47:56.558Z,5.80
2018-06-13T10:50:25.606Z,4.78
2018-06-13T10:52:54.744Z,5.25
2018-06-13T10:55:23.570Z,5.70
2018-06-13T10:57:52.623Z,6.60
2018-06-13T11:00:21.446Z,4.67
2018-06-13T11:02:50.348Z,6.00
2018-06-13T11:05:19.215Z,4.58
2018-06-13T11:07:48.112Z,5.55
2018-06-13T11:10:16.943Z,5.60
2018-06-13T11:12:45.835Z,5.65
2018-06-13T11:15:14.944Z,5.12
2018-06-13T11:17:45.060Z,4.55
2018-06-13T11:20:13.879Z,4.25
2018-06-13T11:22:42.996Z,4.05
2018-06-13T11:25:13.524Z,4.47
2018-06-13T11:27:42.659Z,3.50
2018-06-13T11:30:11.755Z,4.10
2018-06-13T11:32:41.524Z,4.60
2018-06-13T11:35:10.555Z,4.37
2018-06-13T11:37:39.384Z,4.65
2018-06-13T11:40:08.334Z,5.25
2018-06-13T11:42:38.758Z,4.58
2018-06-13T11:45:08.475Z,3.80
2018-06-13T11:47:37.614Z,4.80
2018-06-13T11:50:08.038Z,4.62
2018-06-13T11:52:37.850Z,5.67
2018-06-13T11:55:07.427Z,4.72
2018-06-13T11:57:36.423Z,4.75
2018-06-13T12:00:07.018Z,5.45
2018-06-13T12:02:36.005Z,5.85
2018-06-13T12:05:05.519Z,6.05
2018-06-13T12:07:34.599Z,4.70
2018-06-13T12:10:03.523Z,5.22
2018-06-13T12:12:32.417Z,6.62
2018-06-13T12:15:01.312Z,5.85
2018-06-13T12:17:31.206Z,5.60
2018-06-13T12:20:00.030Z,5.22
2018-06-13T12:22:28.898Z,5.62
2018-06-13T12:24:57.773Z,5.28
2018-06-13T12:27:26.676Z,5.28
2018-06-13T12:29:55.584Z,5.08
2018-06-13T12:32:25.344Z,4.60
2018-06-13T12:34:55.218Z,4.50
2018-06-13T12:37:24.159Z,5.20
2018-06-13T12:39:53.742Z,4.70
2018-06-13T12:42:22.724Z,5.60
2018-06-13T12:44:51.710Z,6.30
2018-06-13T12:47:20.528Z,6.37
2018-06-13T12:49:49.566Z,5.70
2018-06-13T12:52:18.684Z,5.20
2018-06-13T12:54:47.798Z,6.05
2018-06-13T12:57:17.573Z,5.58
2018-06-13T12:59:46.472Z,5.22
2018-06-13T13:02:15.303Z,6.60
2018-06-13T13:04:44.373Z,5.95
2018-06-13T13:07:13.554Z,5.85
2018-06-13T13:09:42.747Z,5.22
2018-06-13T13:12:12.018Z,5.62
2018-06-13T13:14:41.047Z,6.60
2018-06-13T13:17:10.127Z,6.35
2018-06-13T13:19:39.223Z,6.83
2018-06-13T13:22:08.120Z,6.97
2018-06-13T13:24:36.966Z,6.90
2018-06-13T13:27:06.783Z,6.97
2018-06-13T13:29:36.478Z,6.87
2018-06-13T13:32:05.763Z,6.03
2018-06-13T13:34:35.129Z,6.15
2018-06-13T13:37:03.939Z,5.70
2018-06-13T13:39:32.796Z,5.12
2018-06-13T13:42:01.631Z,6.20
2018-06-13T13:44:30.556Z,5.55
2018-06-13T13:46:59.427Z,6.58
2018-06-13T13:49:28.318Z,6.83
2018-06-13T13:51:58.627Z,6.25
2018-06-13T13:54:28.354Z,6.55
2018-06-13T13:56:57.210Z,6.30
2018-06-13T13:59:27.095Z,6.62
2018-06-13T14:01:55.990Z,6.80
2018-06-13T14:04:25.866Z,6.90
2018-06-13T14:06:55.165Z,7.85
2018-06-13T14:09:25.895Z,7.50
2018-06-13T14:11:55.809Z,7.42
2018-06-13T14:14:25.455Z,7.50
2018-06-13T14:16:56.968Z,7.75
2018-06-13T14:19:26.642Z,7.17
2018-06-13T14:21:55.787Z,8.38
2018-06-13T14:24:25.384Z,7.65
2018-06-13T14:26:56.405Z,7.67
2018-06-13T14:29:26.432Z,7.10
2018-06-13T14:31:57.573Z,7.53
2018-06-13T14:34:28.568Z,7.40
2018-06-13T14:36:59.345Z,7.33
2018-06-13T14:39:31.992Z,7.47
2018-06-13T14:42:02.805Z,7.50
2018-06-13T14:44:32.860Z,8.05
2018-06-13T14:47:02.220Z,8.68
2018-06-13T14:49:31.880Z,8.25
2018-06-13T14:52:02.186Z,8.45
2018-06-13T14:54:31.889Z,8.80
2018-06-13T14:57:01.800Z,8.75
2018-06-13T14:59:34.442Z,8.50
2018-06-13T15:02:03.900Z,7.37
2018-06-13T15:04:35.744Z,8.05
2018-06-13T15:07:06.867Z,7.60
2018-06-13T15:09:36.397Z,8.43
2018-06-13T15:12:05.652Z,7.67
2018-06-13T15:14:35.800Z,6.90
2018-06-13T15:17:07.938Z,7.30
2018-06-13T15:19:38.504Z,7.72
2018-06-13T15:22:08.690Z,7.00
2018-06-13T15:24:39.495Z,8.00
2018-06-13T15:27:10.316Z,8.05
2018-06-13T15:29:39.472Z,7.50
2018-06-13T15:32:10.115Z,8.95
2018-06-13T15:34:39.303Z,8.85
2018-06-13T15:37:09.239Z,7.72
2018-06-13T15:39:38.506Z,8.53
2018-06-13T15:42:11.487Z,8.50
2018-06-13T15:44:43.008Z,7.55
2018-06-13T15:47:13.670Z,8.45
2018-06-13T15:49:44.787Z,7.58
2018-06-13T15:52:14.978Z,9.30
2018-06-13T15:54:45.249Z,7.87
2018-06-13T15:57:16.783Z,8.65
2018-06-13T15:59:47.209Z,9.00
2018-06-13T16:02:16.200Z,7.95
2018-06-13T16:04:47.304Z,7.67
2018-06-13T16:07:16.309Z,7.97
2018-06-13T16:09:45.270Z,8.08
2018-06-13T16:12:14.321Z,8.60
2018-06-13T16:14:44.239Z,7.75
2018-06-13T16:17:13.861Z,7.80
2018-06-13T16:19:43.253Z,7.20
2018-06-13T16:22:12.847Z,6.80
2018-06-13T16:24:43.028Z,6.37
2018-06-13T16:27:12.652Z,8.65
2018-06-13T16:29:41.982Z,6.95
2018-06-13T16:32:11.317Z,7.45
2018-06-13T16:34:40.410Z,7.47
2018-06-13T16:37:09.552Z,7.40
2018-06-13T16:39:39.558Z,8.55
2018-06-13T16:42:09.920Z,8.58
2018-06-13T16:44:39.861Z,9.30
2018-06-13T16:47:08.900Z,8.08
2018-06-13T16:49:38.601Z,7.05
2018-06-13T16:52:19.060Z,8.38
2018-06-13T16:54:59.212Z,8.75
2018-06-13T16:57:28.411Z,8.33
2018-06-13T16:59:58.310Z,8.40
2018-06-13T17:02:29.092Z,7.40
2018-06-13T17:04:58.067Z,8.18
2018-06-13T17:07:26.830Z,9.40
2018-06-13T17:09:55.993Z,6.90
2018-06-13T17:12:25.002Z,9.15
2018-06-13T17:14:53.924Z,8.63
2018-06-13T17:17:22.843Z,9.35
2018-06-13T17:19:51.744Z,9.08
2018-06-13T17:22:22.542Z,8.80
2018-06-13T17:24:51.567Z,10.90
2018-06-13T17:27:20.651Z,9.63
2018-06-13T17:29:49.645Z,9.30
2018-06-13T17:32:18.612Z,9.63
2018-06-13T17:34:48.390Z,9.80
2018-06-13T17:37:17.689Z,9.55
2018-06-13T17:39:47.398Z,9.40
2018-06-13T17:42:16.574Z,11.48
2018-06-13T17:44:47.583Z,11.80
2018-06-13T17:47:19.601Z,9.80
2018-06-13T17:49:49.110Z,9.80
2018-06-13T17:52:19.317Z,11.53
2018-06-13T17:54:49.535Z,10.60
2018-06-13T17:57:19.373Z,10.80
2018-06-13T17:59:49.117Z,11.40
2018-06-13T18:02:19.435Z,12.60
2018-06-13T18:05:29.808Z,10.23
2018-06-13T18:07:58.549Z,10.82
2018-06-13T18:10:27.621Z,11.73
2018-06-13T18:12:56.912Z,10.45
2018-06-13T18:15:26.564Z,10.98
2018-06-13T18:17:55.823Z,10.95
2018-06-13T18:20:25.088Z,8.95
2018-06-13T18:22:54.787Z,9.90
2018-06-13T18:25:24.027Z,10.45
2018-06-13T18:27:53.295Z,10.00
2018-06-13T18:30:22.621Z,10.55
2018-06-13T18:32:52.242Z,10.45
2018-06-13T18:35:21.321Z,11.12
2018-06-13T18:37:50.374Z,11.50
2018-06-13T18:40:19.589Z,10.82
2018-06-13T18:42:49.074Z,11.20
2018-06-13T18:45:18.039Z,10.75
2018-06-13T18:47:47.203Z,10.70
2018-06-13T18:50:18.696Z,11.80
2018-06-13T18:52:48.655Z,10.50
2018-06-13T18:55:18.229Z,10.70
2018-06-13T18:57:47.773Z,11.10
2018-06-13T19:00:18.449Z,10.95
2018-06-13T19:02:47.790Z,11.43
2018-06-13T19:05:16.987Z,10.23
2018-06-13T19:07:46.348Z,10.45
2018-06-13T19:10:15.539Z,10.55
2018-06-13T19:12:45.811Z,12.73
2018-06-13T19:15:14.952Z,11.70
2018-06-13T19:17:45.825Z,11.45
2018-06-13T19:20:16.014Z,12.95
2018-06-13T19:22:45.236Z,11.43
2018-06-13T19:25:14.417Z,10.00
2018-06-13T19:27:43.493Z,11.30
2018-06-13T19:30:12.715Z,10.70
2018-06-13T19:32:41.881Z,10.80
2018-06-13T19:35:11.056Z,9.80
2018-06-13T19:37:40.858Z,10.30
2018-06-13T19:40:10.020Z,10.48
2018-06-13T19:42:39.207Z,10.55
2018-06-13T19:45:08.439Z,10.58
2018-06-13T19:47:42.623Z,11.00
2018-06-13T19:50:11.879Z,11.22
2018-06-13T19:52:45.939Z,9.98
2018-06-13T19:55:20.092Z,9.78
2018-06-13T19:57:49.077Z,9.80
2018-06-13T20:00:18.398Z,11.05
2018-06-13T20:02:52.633Z,10.80
2018-06-13T20:05:26.784Z,10.15
2018-06-13T20:07:55.760Z,9.93
2018-06-13T20:10:25.139Z,11.38
2018-06-13T20:12:59.383Z,11.93
2018-06-13T20:15:33.778Z,12.28
2018-06-13T20:18:07.659Z,9.80
2018-06-13T20:20:37.074Z,10.98
2018-06-13T20:23:06.443Z,10.20
2018-06-13T20:25:41.559Z,11.65
2018-06-13T20:28:16.440Z,10.68
2018-06-13T20:30:50.772Z,11.55
2018-06-13T20:33:19.953Z,11.35
2018-06-13T20:35:49.458Z,10.90
2018-06-13T20:38:19.282Z,10.70
2018-06-13T20:40:48.581Z,11.55
2018-06-13T20:43:17.927Z,10.43
2018-06-13T20:45:47.221Z,12.25
2018-06-13T20:48:16.523Z,11.45
2018-06-13T20:50:45.821Z,11.95
2018-06-13T20:53:15.035Z,11.48
2018-06-13T20:55:44.142Z,11.80
2018-06-13T20:58:13.219Z,12.37
2018-06-13T21:00:42.545Z,11.25
2018-06-13T21:03:11.827Z,11.60
2018-06-13T21:05:40.982Z,10.63
2018-06-13T21:08:10.304Z,10.65
2018-06-13T21:10:39.644Z,10.25
2018-06-13T21:13:08.570Z,10.08
2018-06-13T21:15:39.156Z,9.83
2018-06-13T21:18:08.211Z,10.63
2018-06-13T21:20:37.115Z,10.85
2018-06-13T21:23:06.384Z,10.55
2018-06-13T21:25:36.375Z,10.95
2018-06-13T21:28:05.569Z,10.00
2018-06-13T21:30:34.795Z,10.05
2018-06-13T21:33:04.939Z,9.50
2018-06-13T21:35:34.217Z,10.32
2018-06-13T21:38:03.424Z,9.60
2018-06-13T21:40:32.717Z,9.05
2018-06-13T21:43:03.489Z,8.48
2018-06-13T21:45:32.639Z,9.55
2018-06-13T21:48:01.955Z,8.98
2018-06-13T21:50:31.318Z,9.20
2018-06-13T21:53:00.510Z,7.67
2018-06-13T21:55:29.685Z,8.55
2018-06-13T21:57:58.885Z,8.35
2018-06-13T22:00:28.433Z,8.53
2018-06-13T22:02:58.139Z,8.88
2018-06-13T22:05:27.209Z,8.80
2018-06-13T22:07:56.506Z,8.90
2018-06-13T22:10:25.680Z,8.78
2018-06-13T22:12:55.021Z,8.83
2018-06-13T22:15:26.060Z,12.70
2018-06-13T22:17:56.746Z,8.33
2018-06-13T22:20:30.277Z,6.53
2018-06-13T22:22:59.841Z,6.03
2018-06-13T22:25:28.754Z,8.35
2018-06-13T22:27:57.951Z,6.75
2018-06-13T22:30:26.946Z,7.22
2018-06-13T22:32:55.901Z,6.42
2018-06-13T22:35:24.828Z,6.17
2018-06-13T22:37:53.715Z,6.58
2018-06-13T22:40:22.841Z,5.60
2018-06-13T22:42:52.102Z,6.28
2018-06-13T22:45:21.325Z,5.75
2018-06-13T22:47:50.678Z,5.45
2018-06-13T22:50:19.823Z,5.65
2018-06-13T22:52:48.892Z,5.15
2018-06-13T22:55:18.165Z,4.95
2018-06-13T22:57:47.577Z,5.28
2018-06-13T23:00:26.153Z,6.10
2018-06-13T23:02:55.715Z,5.55
2018-06-13T23:05:24.703Z,5.40
2018-06-13T23:07:54.037Z,4.65
2018-06-13T23:10:23.176Z,5.55
2018-06-13T23:12:52.480Z,4.72
2018-06-13T23:15:22.439Z,4.12
2018-06-13T23:17:51.617Z,3.65
2018-06-13T23:20:20.772Z,4.28
2018-06-13T23:22:49.871Z,3.87
2018-06-13T23:25:18.939Z,6.08
2018-06-13T23:27:48.450Z,3.95
2018-06-13T23:30:17.673Z,3.95
2018-06-13T23:32:46.765Z,4.35
2018-06-13T23:35:16.713Z,4.17
2018-06-13T23:37:45.843Z,4.28
2018-06-13T23:40:15.652Z,3.42
2018-06-13T23:42:44.581Z,3.20
2018-06-13T23:45:13.517Z,3.67
2018-06-13T23:47:42.446Z,3.33
2018-06-13T23:50:11.376Z,3.37
2018-06-13T23:52:40.384Z,24.95
2018-06-13T23:55:09.722Z,3.75
2018-06-13T23:57:39.060Z,3.65
